»·PEaware :: N4139Q KHQM-S23

N4139Q :: KHQM-S23

FLIGHT INFORMATION

Flight Status: Arrived
Operator: Privately registered:
United States
More flights under this callsign
Pilot: Joey C. (6821)
Aircraft: PILATUS PC-12 EAGLE
(PC12)
More flights by this aircraft type
Origin: KHQM Bowerman
United States
Destination: S23 Ione Mun
United States
More flights between these airports :: More routes between these airports
Route: SEA DBLUS
File this flight plan on PilotEdge
Remarks:
Altitude:
(Current/Filed)
17,500ft
Speed:
(Current/Filed)
265kts
Departed: 09-Oct-20 11:01 AM
Arrived: 09-Oct-20 12:18 PM
Distance/Time
Traveled:
283nm/1:17
Distance/Time
To Go:
Arrived

Flight Plot

Page will automatically refresh every two minutes.

Flight plan parsing failed; only flown route is shown


Map Options




Map Legend


Flown Route
Filed Route
Departure Airport
Arrival Airport
Navaid (VOR, NDB)
Fix

Horizontal Profiles

Position Reports

Time Latitude Longitude Heading Altitude Ground
Speed
09-Oct-20 10:50 46.973351 -123.930685 170 23ft 0kts
09-Oct-20 10:51 46.973351 -123.930685 170 23ft 0kts
09-Oct-20 10:52 46.973351 -123.930685 170 23ft 0kts
09-Oct-20 10:53 46.973351 -123.930685 170 23ft 0kts
09-Oct-20 10:54 46.973351 -123.930685 170 23ft 0kts
09-Oct-20 10:55 46.973351 -123.930685 170 23ft 0kts
09-Oct-20 10:56 46.973351 -123.930685 170 23ft 0kts
09-Oct-20 10:57 46.972921 -123.931285 248 23ft 15kts
09-Oct-20 10:58 46.971908 -123.939360 259 27ft 22kts
09-Oct-20 10:59 46.971081 -123.945849 232 33ft 0kts
09-Oct-20 11:00 46.971294 -123.935069 79 59ft 117kts
09-Oct-20 11:01 46.987529 -123.887737 65 1980ft 136kts
09-Oct-20 11:02 47.003115 -123.830138 67 3833ft 158kts
09-Oct-20 11:03 47.020420 -123.770368 66 5854ft 163kts
09-Oct-20 11:04 47.038486 -123.708629 66 7845ft 168kts
09-Oct-20 11:05 47.057063 -123.644961 66 9769ft 173kts
09-Oct-20 11:06 47.076148 -123.579383 66 11601ft 178kts
09-Oct-20 11:07 47.095743 -123.511872 66 13345ft 183kts
09-Oct-20 11:08 47.115849 -123.442419 66 15001ft 188kts
09-Oct-20 11:09 47.136405 -123.371200 66 16568ft 192kts
09-Oct-20 11:10 47.158083 -123.295882 67 17504ft 222kts
09-Oct-20 11:11 47.183937 -123.205548 67 17501ft 251kts
09-Oct-20 11:12 47.211456 -123.109156 67 17500ft 259kts
09-Oct-20 11:13 47.239473 -123.010672 67 17500ft 261kts
09-Oct-20 11:14 47.267443 -122.911972 67 17499ft 262kts
09-Oct-20 11:15 47.295428 -122.812811 67 17499ft 262kts
09-Oct-20 11:16 47.323282 -122.713709 67 17499ft 262kts
09-Oct-20 11:17 47.351085 -122.614384 67 17499ft 262kts
09-Oct-20 11:18 47.378769 -122.515050 67 17499ft 262kts
09-Oct-20 11:19 47.406334 -122.415744 67 17499ft 262kts
09-Oct-20 11:20 47.432883 -122.316146 76 17498ft 262kts
09-Oct-20 11:21 47.434804 -122.208890 90 17499ft 262kts
09-Oct-20 11:22 47.433980 -122.101436 90 17499ft 262kts
09-Oct-20 11:23 47.432943 -121.993781 90 17499ft 262kts
09-Oct-20 11:24 47.431927 -121.897716 90 17499ft 261kts
09-Oct-20 11:25 47.430695 -121.790040 90 17499ft 261kts
09-Oct-20 11:26 47.436927 -121.684014 73 17501ft 261kts
09-Oct-20 11:27 47.457661 -121.581159 73 17499ft 261kts
09-Oct-20 11:28 47.478201 -121.477880 73 17499ft 261kts
09-Oct-20 11:29 47.498540 -121.374653 73 17499ft 261kts
09-Oct-20 11:30 47.518756 -121.271495 73 17499ft 261kts
09-Oct-20 11:31 47.538892 -121.168182 73 17499ft 261kts
09-Oct-20 11:32 47.558968 -121.064624 73 17499ft 261kts
09-Oct-20 11:33 47.578864 -120.961436 73 17499ft 261kts
09-Oct-20 11:34 47.598786 -120.857600 73 17499ft 261kts
09-Oct-20 11:35 47.618534 -120.754011 73 17499ft 261kts
09-Oct-20 11:36 47.638184 -120.650443 73 17499ft 261kts
09-Oct-20 11:37 47.657794 -120.546427 73 17499ft 261kts
09-Oct-20 11:38 47.677227 -120.442824 73 17499ft 261kts
09-Oct-20 11:39 47.696636 -120.338772 74 17499ft 261kts
09-Oct-20 11:40 47.715964 -120.234582 74 17499ft 261kts
09-Oct-20 11:41 47.735188 -120.130350 74 17499ft 261kts
09-Oct-20 11:42 47.754274 -120.026281 74 17499ft 261kts
09-Oct-20 11:43 47.773252 -119.922209 74 17499ft 261kts
09-Oct-20 11:44 47.792184 -119.817792 74 17499ft 261kts
09-Oct-20 11:45 47.811041 -119.713191 74 17499ft 261kts
09-Oct-20 11:46 47.829778 -119.608646 74 17499ft 261kts
09-Oct-20 11:47 47.848384 -119.504229 74 17499ft 261kts
09-Oct-20 11:48 47.866966 -119.399335 74 17499ft 261kts
09-Oct-20 11:49 47.885374 -119.294818 75 17499ft 261kts
09-Oct-20 11:50 47.903733 -119.189966 75 17499ft 261kts
09-Oct-20 11:51 47.922344 -119.085165 72 17500ft 261kts
09-Oct-20 11:52 47.946692 -118.982867 69 17499ft 261kts
09-Oct-20 11:53 47.971394 -118.880750 69 17499ft 261kts
09-Oct-20 11:54 47.995976 -118.778695 69 17499ft 261kts
09-Oct-20 11:55 48.020489 -118.676448 69 17499ft 261kts
09-Oct-20 11:56 48.044970 -118.573854 69 17499ft 261kts
09-Oct-20 11:57 48.069301 -118.471403 69 17499ft 261kts
09-Oct-20 11:58 48.093493 -118.369059 69 17499ft 261kts
09-Oct-20 11:59 48.117696 -118.266029 70 17132ft 267kts
09-Oct-20 12:00 48.142646 -118.159350 70 16126ft 271kts
09-Oct-20 12:01 48.166890 -118.055052 70 14920ft 259kts
09-Oct-20 12:02 48.190256 -117.954391 70 13717ft 254kts
09-Oct-20 12:03 48.213221 -117.854911 70 12516ft 251kts
09-Oct-20 12:04 48.235711 -117.757035 70 11489ft 244kts
09-Oct-20 12:05 48.257466 -117.661974 70 10680ft 238kts
09-Oct-20 12:07 48.278965 -117.568673 71 9880ft 235kts
09-Oct-20 12:08 48.298929 -117.475304 72 9093ft 233kts
09-Oct-20 12:09 48.320617 -117.384695 61 8167ft 230kts
09-Oct-20 12:10 48.365637 -117.320083 19 7040ft 228kts
09-Oct-20 12:11 48.427633 -117.317036 351 6070ft 222kts
09-Oct-20 12:12 48.486634 -117.334085 349 5070ft 215kts
09-Oct-20 12:13 48.541756 -117.353627 343 4753ft 188kts
09-Oct-20 12:14 48.585937 -117.371414 344 4678ft 141kts
09-Oct-20 12:15 48.623579 -117.385462 348 3797ft 132kts
09-Oct-20 12:16 48.657687 -117.396669 348 3025ft 114kts
09-Oct-20 12:17 48.686156 -117.405519 347 2418ft 98kts
09-Oct-20 12:18 48.708558 -117.413179 354 2113ft 22kts
09-Oct-20 12:19 48.713793 -117.414377 79 2112ft 8kts

Navigation Log

Ident Type
Flight plan parsing failed, navigation log unavailable